sensor_id;sensor_type;location;lat;lon;timestamp;pressure;altitude;pressure_sealevel;temperature;humidity
68193;BME280;55012;47.562;18.414;2023-04-08T00:02:20;98530.50;;;4.11;100.00
68193;BME280;55012;47.562;18.414;2023-04-08T00:04:46;98519.19;;;4.14;100.00
68193;BME280;55012;47.562;18.414;2023-04-08T00:07:11;98508.94;;;4.16;100.00
68193;BME280;55012;47.562;18.414;2023-04-08T00:09:36;98501.69;;;4.16;100.00
68193;BME280;55012;47.562;18.414;2023-04-08T00:12:03;98499.47;;;4.18;100.00
68193;BME280;55012;47.562;18.414;2023-04-08T00:14:28;98493.78;;;4.20;100.00
68193;BME280;55012;47.562;18.414;2023-04-08T00:16:54;98485.47;;;4.13;100.00
68193;BME280;55012;47.562;18.414;2023-04-08T00:19:19;98492.72;;;4.12;100.00
68193;BME280;55012;47.562;18.414;2023-04-08T00:21:45;98487.06;;;4.14;100.00
68193;BME280;55012;47.562;18.414;2023-04-08T00:24:11;98484.41;;;4.14;100.00
68193;BME280;55012;47.562;18.414;2023-04-08T00:26:37;98484.84;;;4.16;100.00
68193;BME280;55012;47.562;18.414;2023-04-08T00:29:02;98470.34;;;4.17;100.00
68193;BME280;55012;47.562;18.414;2023-04-08T00:31:28;98473.03;;;4.17;100.00
68193;BME280;55012;47.562;18.414;2023-04-08T00:33:54;98468.50;;;4.09;100.00
68193;BME280;55012;47.562;18.414;2023-04-08T00:36:19;98462.06;;;4.01;100.00
68193;BME280;55012;47.562;18.414;2023-04-08T00:38:44;98471.22;;;4.00;100.00
68193;BME280;55012;47.562;18.414;2023-04-08T00:41:12;98466.63;;;4.01;100.00
68193;BME280;55012;47.562;18.414;2023-04-08T00:43:37;98471.34;;;4.04;100.00
68193;BME280;55012;47.562;18.414;2023-04-08T00:46:03;98466.78;;;4.04;100.00
68193;BME280;55012;47.562;18.414;2023-04-08T00:48:29;98462.97;;;4.05;100.00
68193;BME280;55012;47.562;18.414;2023-04-08T00:50:56;98461.13;;;4.06;100.00
68193;BME280;55012;47.562;18.414;2023-04-08T00:53:21;98446.50;;;3.94;100.00
68193;BME280;55012;47.562;18.414;2023-04-08T00:55:47;98465.22;;;3.94;100.00
68193;BME280;55012;47.562;18.414;2023-04-08T00:58:13;98460.84;;;3.90;100.00
68193;BME280;55012;47.562;18.414;2023-04-08T01:00:46;98467.44;;;3.92;100.00
68193;BME280;55012;47.562;18.414;2023-04-08T01:03:41;98462.88;;;3.93;100.00
68193;BME280;55012;47.562;18.414;2023-04-08T01:06:33;98458.44;;;3.97;100.00
68193;BME280;55012;47.562;18.414;2023-04-08T01:09:03;98462.38;;;4.00;100.00
68193;BME280;55012;47.562;18.414;2023-04-08T01:11:31;98455.78;;;3.97;100.00
68193;BME280;55012;47.562;18.414;2023-04-08T01:14:00;98458.31;;;3.93;100.00
68193;BME280;55012;47.562;18.414;2023-04-08T01:16:27;98460.06;;;3.89;100.00
68193;BME280;55012;47.562;18.414;2023-04-08T01:18:54;98452.81;;;3.90;100.00
68193;BME280;55012;47.562;18.414;2023-04-08T01:21:21;98454.56;;;3.86;100.00
68193;BME280;55012;47.562;18.414;2023-04-08T01:24:10;98454.88;;;3.84;100.00
68193;BME280;55012;47.562;18.414;2023-04-08T01:26:41;98444.03;;;3.81;100.00
68193;BME280;55012;47.562;18.414;2023-04-08T01:29:09;98451.25;;;3.89;100.00
68193;BME280;55012;47.562;18.414;2023-04-08T01:31:35;98455.19;;;3.91;100.00
68193;BME280;55012;47.562;18.414;2023-04-08T01:34:03;98452.03;;;3.89;100.00
68193;BME280;55012;47.562;18.414;2023-04-08T01:36:31;98451.72;;;3.91;100.00
68193;BME280;55012;47.562;18.414;2023-04-08T01:38:59;98448.72;;;3.92;100.00
68193;BME280;55012;47.562;18.414;2023-04-08T01:41:26;98452.19;;;3.93;100.00
68193;BME280;55012;47.562;18.414;2023-04-08T01:43:53;98448.25;;;3.90;100.00
68193;BME280;55012;47.562;18.414;2023-04-08T01:46:19;98450.94;;;3.90;100.00
68193;BME280;55012;47.562;18.414;2023-04-08T01:48:46;98449.81;;;3.91;100.00
68193;BME280;55012;47.562;18.414;2023-04-08T01:51:14;98444.94;;;3.93;100.00
68193;BME280;55012;47.562;18.414;2023-04-08T01:53:40;98449.97;;;3.95;100.00
68193;BME280;55012;47.562;18.414;2023-04-08T01:56:09;98446.16;;;3.96;100.00
68193;BME280;55012;47.562;18.414;2023-04-08T01:58:41;98443.19;;;3.98;100.00
68193;BME280;55012;47.562;18.414;2023-04-08T02:01:12;98442.38;;;3.97;100.00
68193;BME280;55012;47.562;18.414;2023-04-08T02:03:40;98436.25;;;3.97;100.00
68193;BME280;55012;47.562;18.414;2023-04-08T02:06:06;98448.56;;;3.98;100.00
68193;BME280;55012;47.562;18.414;2023-04-08T02:08:36;98445.38;;;3.95;100.00
68193;BME280;55012;47.562;18.414;2023-04-08T02:11:02;98445.06;;;3.97;100.00
68193;BME280;55012;47.562;18.414;2023-04-08T02:13:28;98453.09;;;3.97;100.00
68193;BME280;55012;47.562;18.414;2023-04-08T02:16:10;98456.09;;;3.95;100.00
68193;BME280;55012;47.562;18.414;2023-04-08T02:18:42;98450.41;;;3.97;100.00
68193;BME280;55012;47.562;18.414;2023-04-08T02:21:17;98459.09;;;3.94;100.00
68193;BME280;55012;47.562;18.414;2023-04-08T02:23:47;98447.00;;;3.88;100.00
68193;BME280;55012;47.562;18.414;2023-04-08T02:26:16;98455.53;;;3.81;100.00
68193;BME280;55012;47.562;18.414;2023-04-08T02:28:43;98458.19;;;3.81;100.00
68193;BME280;55012;47.562;18.414;2023-04-08T02:31:11;98460.88;;;3.81;100.00
68193;BME280;55012;47.562;18.414;2023-04-08T02:33:38;98464.78;;;3.84;100.00
68193;BME280;55012;47.562;18.414;2023-04-08T02:36:04;98460.69;;;3.86;100.00
68193;BME280;55012;47.562;18.414;2023-04-08T02:38:31;98460.06;;;3.89;100.00
68193;BME280;55012;47.562;18.414;2023-04-08T02:40:57;98460.53;;;3.91;100.00
68193;BME280;55012;47.562;18.414;2023-04-08T02:43:23;98457.97;;;3.95;100.00
68193;BME280;55012;47.562;18.414;2023-04-08T02:45:56;98460.03;;;3.98;100.00
68193;BME280;55012;47.562;18.414;2023-04-08T02:48:21;98456.88;;;3.96;100.00
68193;BME280;55012;47.562;18.414;2023-04-08T02:50:47;98464.13;;;3.95;100.00
68193;BME280;55012;47.562;18.414;2023-04-08T02:53:12;98459.09;;;3.94;100.00
68193;BME280;55012;47.562;18.414;2023-04-08T02:55:38;98461.97;;;3.89;100.00
68193;BME280;55012;47.562;18.414;2023-04-08T02:58:04;98467.00;;;3.90;100.00
68193;BME280;55012;47.562;18.414;2023-04-08T03:00:30;98469.19;;;3.88;100.00
68193;BME280;55012;47.562;18.414;2023-04-08T03:02:55;98466.50;;;3.88;100.00
68193;BME280;55012;47.562;18.414;2023-04-08T03:05:21;98463.81;;;3.88;100.00
68193;BME280;55012;47.562;18.414;2023-04-08T03:07:46;98465.09;;;3.91;100.00
68193;BME280;55012;47.562;18.414;2023-04-08T03:10:12;98459.25;;;3.98;100.00
68193;BME280;55012;47.562;18.414;2023-04-08T03:12:37;98461.41;;;4.04;100.00
68193;BME280;55012;47.562;18.414;2023-04-08T03:15:03;98466.78;;;4.04;100.00
68193;BME280;55012;47.562;18.414;2023-04-08T03:17:29;98460.00;;;4.07;100.00
68193;BME280;55012;47.562;18.414;2023-04-08T03:19:57;98466.31;;;4.02;100.00
68193;BME280;55012;47.562;18.414;2023-04-08T03:22:23;98473.88;;;4.00;100.00
68193;BME280;55012;47.562;18.414;2023-04-08T03:24:49;98472.00;;;4.01;100.00
68193;BME280;55012;47.562;18.414;2023-04-08T03:27:14;98473.56;;;4.02;100.00
68193;BME280;55012;47.562;18.414;2023-04-08T03:29:40;98472.31;;;3.99;100.00
68193;BME280;55012;47.562;18.414;2023-04-08T03:32:05;98477.78;;;4.03;100.00
68193;BME280;55012;47.562;18.414;2023-04-08T03:34:33;98474.66;;;4.01;100.00
68193;BME280;55012;47.562;18.414;2023-04-08T03:36:58;98478.59;;;4.03;100.00
68193;BME280;55012;47.562;18.414;2023-04-08T03:39:24;98474.97;;;4.08;100.00
68193;BME280;55012;47.562;18.414;2023-04-08T03:41:50;98473.53;;;4.10;100.00
68193;BME280;55012;47.562;18.414;2023-04-08T03:44:16;98478.88;;;4.10;100.00
68193;BME280;55012;47.562;18.414;2023-04-08T03:46:41;98476.38;;;4.05;100.00
68193;BME280;55012;47.562;18.414;2023-04-08T03:49:07;98485.22;;;4.06;100.00
68193;BME280;55012;47.562;18.414;2023-04-08T03:51:32;98482.53;;;3.97;100.00
68193;BME280;55012;47.562;18.414;2023-04-08T03:53:58;98483.97;;;3.94;100.00
68193;BME280;55012;47.562;18.414;2023-04-08T03:56:23;98480.81;;;3.92;100.00
68193;BME280;55012;47.562;18.414;2023-04-08T03:58:49;98488.72;;;3.89;100.00
68193;BME280;55012;47.562;18.414;2023-04-08T04:01:15;98492.81;;;3.78;100.00
68193;BME280;55012;47.562;18.414;2023-04-08T04:03:41;98501.94;;;3.77;100.00
68193;BME280;55012;47.562;18.414;2023-04-08T04:06:06;98502.72;;;3.77;100.00
68193;BME280;55012;47.562;18.414;2023-04-08T04:08:32;98508.25;;;3.81;100.00
68193;BME280;55012;47.562;18.414;2023-04-08T04:10:58;98503.69;;;3.81;100.00
68193;BME280;55012;47.562;18.414;2023-04-08T04:13:24;98505.25;;;3.82;100.00
68193;BME280;55012;47.562;18.414;2023-04-08T04:15:49;98508.53;;;3.79;100.00
68193;BME280;55012;47.562;18.414;2023-04-08T04:18:15;98515.66;;;3.75;100.00
68193;BME280;55012;47.562;18.414;2023-04-08T04:20:41;98526.19;;;3.72;100.00
68193;BME280;55012;47.562;18.414;2023-04-08T04:23:07;98524.59;;;3.71;100.00
68193;BME280;55012;47.562;18.414;2023-04-08T04:25:32;98529.97;;;3.71;100.00
68193;BME280;55012;47.562;18.414;2023-04-08T04:27:58;98526.34;;;3.66;100.00
68193;BME280;55012;47.562;18.414;2023-04-08T04:30:23;98532.63;;;3.62;100.00
68193;BME280;55012;47.562;18.414;2023-04-08T04:32:49;98529.19;;;3.61;100.00
68193;BME280;55012;47.562;18.414;2023-04-08T04:35:14;98533.72;;;3.70;100.00
68193;BME280;55012;47.562;18.414;2023-04-08T04:37:40;98527.28;;;3.71;100.00
68193;BME280;55012;47.562;18.414;2023-04-08T04:40:06;98531.69;;;3.75;100.00
68193;BME280;55012;47.562;18.414;2023-04-08T04:42:31;98533.09;;;3.81;100.00
68193;BME280;55012;47.562;18.414;2023-04-08T04:44:57;98531.06;;;3.78;100.00
68193;BME280;55012;47.562;18.414;2023-04-08T04:47:23;98529.81;;;3.76;100.00
68193;BME280;55012;47.562;18.414;2023-04-08T04:49:49;98519.44;;;3.74;100.00
68193;BME280;55012;47.562;18.414;2023-04-08T04:52:15;98515.00;;;3.78;100.00
68193;BME280;55012;47.562;18.414;2023-04-08T04:54:40;98517.19;;;3.85;100.00
68193;BME280;55012;47.562;18.414;2023-04-08T04:57:06;98513.59;;;3.89;100.00
68193;BME280;55012;47.562;18.414;2023-04-08T04:59:31;98522.84;;;3.92;100.00
68193;BME280;55012;47.562;18.414;2023-04-08T05:01:57;98523.19;;;3.90;100.00
68193;BME280;55012;47.562;18.414;2023-04-08T05:04:23;98530.88;;;3.92;100.00
68193;BME280;55012;47.562;18.414;2023-04-08T05:06:48;98526.63;;;3.91;100.00
68193;BME280;55012;47.562;18.414;2023-04-08T05:09:14;98535.13;;;3.93;100.00
68193;BME280;55012;47.562;18.414;2023-04-08T05:11:40;98539.69;;;3.92;100.00
68193;BME280;55012;47.562;18.414;2023-04-08T05:14:05;98532.59;;;3.97;100.00
68193;BME280;55012;47.562;18.414;2023-04-08T05:16:32;98541.72;;;3.95;100.00
68193;BME280;55012;47.562;18.414;2023-04-08T05:18:57;98539.53;;;3.98;100.00
68193;BME280;55012;47.562;18.414;2023-04-08T05:21:22;98545.66;;;3.98;100.00
68193;BME280;55012;47.562;18.414;2023-04-08T05:23:48;98548.03;;;4.00;100.00
68193;BME280;55012;47.562;18.414;2023-04-08T05:26:18;98551.81;;;3.99;100.00
68193;BME280;55012;47.562;18.414;2023-04-08T05:28:43;98550.38;;;4.01;100.00
68193;BME280;55012;47.562;18.414;2023-04-08T05:31:09;98554.31;;;4.04;100.00
68193;BME280;55012;47.562;18.414;2023-04-08T05:33:36;98559.50;;;4.09;100.00
68193;BME280;55012;47.562;18.414;2023-04-08T05:36:01;98563.88;;;4.13;100.00
68193;BME280;55012;47.562;18.414;2023-04-08T05:38:27;98562.63;;;4.11;100.00
68193;BME280;55012;47.562;18.414;2023-04-08T05:40:52;98576.03;;;4.02;100.00
68193;BME280;55012;47.562;18.414;2023-04-08T05:43:18;98582.50;;;4.01;100.00
68193;BME280;55012;47.562;18.414;2023-04-08T05:45:43;98585.66;;;3.94;100.00
68193;BME280;55012;47.562;18.414;2023-04-08T05:48:09;98582.50;;;4.01;100.00
68193;BME280;55012;47.562;18.414;2023-04-08T05:50:34;98586.59;;;4.07;100.00
68193;BME280;55012;47.562;18.414;2023-04-08T05:53:00;98585.28;;;4.13;100.00
68193;BME280;55012;47.562;18.414;2023-04-08T05:55:26;98539.16;;;4.16;100.00
68193;BME280;55012;47.562;18.414;2023-04-08T05:57:51;98575.06;;;4.15;100.00
68193;BME280;55012;47.562;18.414;2023-04-08T06:00:17;98583.88;;;4.16;100.00
68193;BME280;55012;47.562;18.414;2023-04-08T06:02:42;98587.84;;;4.10;100.00
68193;BME280;55012;47.562;18.414;2023-04-08T06:05:08;98597.28;;;4.07;100.00
68193;BME280;55012;47.562;18.414;2023-04-08T06:07:33;98602.78;;;4.02;100.00
68193;BME280;55012;47.562;18.414;2023-04-08T06:09:59;98605.66;;;4.06;100.00
68193;BME280;55012;47.562;18.414;2023-04-08T06:12:25;98605.31;;;4.07;100.00
68193;BME280;55012;47.562;18.414;2023-04-08T06:14:56;98609.25;;;4.10;100.00
68193;BME280;55012;47.562;18.414;2023-04-08T06:17:22;98614.44;;;4.15;100.00
68193;BME280;55012;47.562;18.414;2023-04-08T06:19:47;98610.34;;;4.17;100.00
68193;BME280;55012;47.562;18.414;2023-04-08T06:22:13;98619.00;;;4.14;100.00
68193;BME280;55012;47.562;18.414;2023-04-08T06:24:38;98626.41;;;4.17;100.00
68193;BME280;55012;47.562;18.414;2023-04-08T06:27:04;98629.84;;;4.18;100.00
68193;BME280;55012;47.562;18.414;2023-04-08T06:29:30;98637.41;;;4.25;100.00
68193;BME280;55012;47.562;18.414;2023-04-08T06:31:57;98636.16;;;4.31;100.00
68193;BME280;55012;47.562;18.414;2023-04-08T06:34:23;98641.66;;;4.34;100.00
68193;BME280;55012;47.562;18.414;2023-04-08T06:36:48;98656.59;;;4.35;100.00
68193;BME280;55012;47.562;18.414;2023-04-08T06:39:14;98668.09;;;4.44;100.00
68193;BME280;55012;47.562;18.414;2023-04-08T06:41:41;98667.28;;;4.53;100.00
68193;BME280;55012;47.562;18.414;2023-04-08T06:44:06;98676.28;;;4.57;100.00
68193;BME280;55012;47.562;18.414;2023-04-08T06:46:32;98680.84;;;4.56;100.00
68193;BME280;55012;47.562;18.414;2023-04-08T06:48:57;98678.44;;;4.63;100.00
68193;BME280;55012;47.562;18.414;2023-04-08T06:51:23;98688.22;;;4.68;100.00
68193;BME280;55012;47.562;18.414;2023-04-08T06:53:48;98694.22;;;4.65;100.00
68193;BME280;55012;47.562;18.414;2023-04-08T06:56:14;98712.47;;;4.63;100.00
68193;BME280;55012;47.562;18.414;2023-04-08T06:58:39;98706.50;;;4.66;100.00
68193;BME280;55012;47.562;18.414;2023-04-08T07:01:05;98721.31;;;4.72;100.00
68193;BME280;55012;47.562;18.414;2023-04-08T07:03:30;98722.56;;;4.74;100.00
68193;BME280;55012;47.562;18.414;2023-04-08T07:05:56;98735.97;;;4.74;100.00
68193;BME280;55012;47.562;18.414;2023-04-08T07:08:21;98738.63;;;4.83;100.00
68193;BME280;55012;47.562;18.414;2023-04-08T07:10:47;98742.53;;;4.86;100.00
68193;BME280;55012;47.562;18.414;2023-04-08T07:13:13;98748.69;;;4.86;100.00
68193;BME280;55012;47.562;18.414;2023-04-08T07:15:40;98750.75;;;4.89;100.00
68193;BME280;55012;47.562;18.414;2023-04-08T07:18:05;98756.38;;;4.96;100.00
68193;BME280;55012;47.562;18.414;2023-04-08T07:20:31;98769.00;;;5.04;100.00
68193;BME280;55012;47.562;18.414;2023-04-08T07:22:56;98790.91;;;5.06;100.00
68193;BME280;55012;47.562;18.414;2023-04-08T07:25:22;98809.06;;;5.01;100.00
68193;BME280;55012;47.562;18.414;2023-04-08T07:27:47;98835.41;;;4.90;100.00
68193;BME280;55012;47.562;18.414;2023-04-08T07:30:13;98848.03;;;4.81;100.00
68193;BME280;55012;47.562;18.414;2023-04-08T07:32:38;98860.31;;;4.73;100.00
68193;BME280;55012;47.562;18.414;2023-04-08T07:35:05;98862.84;;;4.78;100.00
68193;BME280;55012;47.562;18.414;2023-04-08T07:37:31;98868.69;;;4.72;100.00
68193;BME280;55012;47.562;18.414;2023-04-08T07:39:56;98873.06;;;4.68;100.00
68193;BME280;55012;47.562;18.414;2023-04-08T07:42:22;98878.44;;;4.68;100.00
68193;BME280;55012;47.562;18.414;2023-04-08T07:44:47;98874.19;;;4.75;100.00
68193;BME280;55012;47.562;18.414;2023-04-08T07:47:13;98873.25;;;4.80;100.00
68193;BME280;55012;47.562;18.414;2023-04-08T07:49:39;98885.38;;;4.86;100.00
68193;BME280;55012;47.562;18.414;2023-04-08T07:52:05;98879.53;;;4.93;100.00
68193;BME280;55012;47.562;18.414;2023-04-08T07:54:31;98882.69;;;5.03;100.00
68193;BME280;55012;47.562;18.414;2023-04-08T07:56:59;98889.81;;;4.99;100.00
68193;BME280;55012;47.562;18.414;2023-04-08T07:59:25;98898.31;;;5.01;100.00
68193;BME280;55012;47.562;18.414;2023-04-08T08:01:51;98892.00;;;5.06;100.00
68193;BME280;55012;47.562;18.414;2023-04-08T08:04:16;98917.41;;;5.00;100.00
68193;BME280;55012;47.562;18.414;2023-04-08T08:06:42;98915.81;;;4.90;100.00
68193;BME280;55012;47.562;18.414;2023-04-08T08:09:07;98929.38;;;4.85;100.00
68193;BME280;55012;47.562;18.414;2023-04-08T08:11:33;98924.97;;;4.89;100.00
68193;BME280;55012;47.562;18.414;2023-04-08T08:13:58;98919.75;;;4.93;100.00
68193;BME280;55012;47.562;18.414;2023-04-08T08:16:27;98916.94;;;4.98;100.00
68193;BME280;55012;47.562;18.414;2023-04-08T08:18:53;98911.25;;;4.99;100.00
68193;BME280;55012;47.562;18.414;2023-04-08T08:21:18;98919.94;;;5.14;100.00
68193;BME280;55012;47.562;18.414;2023-04-08T08:23:44;98915.50;;;5.18;100.00
68193;BME280;55012;47.562;18.414;2023-04-08T08:26:09;98921.63;;;5.27;100.00
68193;BME280;55012;47.562;18.414;2023-04-08T08:28:36;98916.44;;;5.30;100.00
68193;BME280;55012;47.562;18.414;2023-04-08T08:31:02;98929.34;;;5.28;100.00
68193;BME280;55012;47.562;18.414;2023-04-08T08:33:27;98924.31;;;5.27;100.00
68193;BME280;55012;47.562;18.414;2023-04-08T08:35:53;98940.41;;;5.27;100.00
68193;BME280;55012;47.562;18.414;2023-04-08T08:38:19;98944.84;;;5.14;100.00
68193;BME280;55012;47.562;18.414;2023-04-08T08:40:45;98948.78;;;5.08;100.00
68193;BME280;55012;47.562;18.414;2023-04-08T08:43:11;98956.34;;;5.15;100.00
68193;BME280;55012;47.562;18.414;2023-04-08T08:45:40;98960.75;;;5.11;100.00
68193;BME280;55012;47.562;18.414;2023-04-08T08:48:07;98966.56;;;5.04;100.00
68193;BME280;55012;47.562;18.414;2023-04-08T08:50:35;98966.91;;;5.11;100.00
68193;BME280;55012;47.562;18.414;2023-04-08T08:53:01;98968.34;;;5.17;100.00
68193;BME280;55012;47.562;18.414;2023-04-08T08:55:30;98966.91;;;5.20;100.00
68193;BME280;55012;47.562;18.414;2023-04-08T08:57:59;98969.28;;;5.21;100.00
68193;BME280;55012;47.562;18.414;2023-04-08T09:00:35;98984.41;;;5.26;100.00
68193;BME280;55012;47.562;18.414;2023-04-08T09:03:21;98991.03;;;5.20;100.00
68193;BME280;55012;47.562;18.414;2023-04-08T09:05:55;98998.47;;;5.31;100.00
68193;BME280;55012;47.562;18.414;2023-04-08T09:08:32;99002.72;;;5.41;100.00
68193;BME280;55012;47.562;18.414;2023-04-08T09:11:14;99009.66;;;5.59;100.00
68193;BME280;55012;47.562;18.414;2023-04-08T09:13:40;99018.66;;;5.72;100.00
68193;BME280;55012;47.562;18.414;2023-04-08T09:16:08;99018.81;;;5.93;100.00
68193;BME280;55012;47.562;18.414;2023-04-08T09:18:35;99020.53;;;6.06;100.00
68193;BME280;55012;47.562;18.414;2023-04-08T09:21:03;99025.53;;;6.16;100.00
68193;BME280;55012;47.562;18.414;2023-04-08T09:23:48;99036.94;;;6.13;100.00
68193;BME280;55012;47.562;18.414;2023-04-08T09:26:17;99057.00;;;6.07;100.00
68193;BME280;55012;47.562;18.414;2023-04-08T09:29:00;99075.97;;;6.02;100.00
68193;BME280;55012;47.562;18.414;2023-04-08T09:31:28;99079.13;;;5.96;100.00
68193;BME280;55012;47.562;18.414;2023-04-08T09:33:56;99088.75;;;5.88;100.00
68193;BME280;55012;47.562;18.414;2023-04-08T09:36:22;99097.41;;;5.85;100.00
68193;BME280;55012;47.562;18.414;2023-04-08T09:38:47;99091.72;;;5.78;100.00
68193;BME280;55012;47.562;18.414;2023-04-08T09:41:17;99106.44;;;5.63;100.00
68193;BME280;55012;47.562;18.414;2023-04-08T09:43:53;99111.00;;;5.62;100.00
68193;BME280;55012;47.562;18.414;2023-04-08T09:49:26;99105.59;;;5.45;100.00
68193;BME280;55012;47.562;18.414;2023-04-08T09:52:18;99113.34;;;5.38;100.00
68193;BME280;55012;47.562;18.414;2023-04-08T09:57:43;99102.13;;;5.36;100.00
68193;BME280;55012;47.562;18.414;2023-04-08T10:00:13;99099.78;;;5.43;100.00
68193;BME280;55012;47.562;18.414;2023-04-08T10:03:10;99090.81;;;5.56;100.00
68193;BME280;55012;47.562;18.414;2023-04-08T10:05:40;99084.31;;;5.66;100.00
68193;BME280;55012;47.562;18.414;2023-04-08T10:08:06;99084.47;;;5.78;100.00
68193;BME280;55012;47.562;18.414;2023-04-08T10:10:37;99073.91;;;5.99;100.00
68193;BME280;55012;47.562;18.414;2023-04-08T10:13:04;99080.69;;;6.14;100.00
68193;BME280;55012;47.562;18.414;2023-04-08T10:15:32;99078.47;;;6.16;100.00
68193;BME280;55012;47.562;18.414;2023-04-08T10:23:05;99112.78;;;5.93;100.00
68193;BME280;55012;47.562;18.414;2023-04-08T10:25:36;99112.59;;;5.89;100.00
68193;BME280;55012;47.562;18.414;2023-04-08T10:35:47;99119.03;;;5.62;100.00
68193;BME280;55012;47.562;18.414;2023-04-08T10:38:13;99120.94;;;5.62;100.00
68193;BME280;55012;47.562;18.414;2023-04-08T10:40:41;99121.56;;;5.68;100.00
68193;BME280;55012;47.562;18.414;2023-04-08T10:43:10;99107.38;;;5.67;100.00
68193;BME280;55012;47.562;18.414;2023-04-08T10:45:38;99114.31;;;5.68;100.00
68193;BME280;55012;47.562;18.414;2023-04-08T10:48:30;99115.56;;;5.62;100.00
68193;BME280;55012;47.562;18.414;2023-04-08T10:50:59;99115.09;;;5.60;100.00
68193;BME280;55012;47.562;18.414;2023-04-08T10:53:36;99108.81;;;5.64;100.00
68193;BME280;55012;47.562;18.414;2023-04-08T10:56:12;99108.34;;;5.71;100.00
68193;BME280;55012;47.562;18.414;2023-04-08T10:58:53;99097.44;;;5.76;100.00
68193;BME280;55012;47.562;18.414;2023-04-08T11:01:21;99100.31;;;5.97;100.00
68193;BME280;55012;47.562;18.414;2023-04-08T11:03:47;99097.59;;;6.06;100.00
68193;BME280;55012;47.562;18.414;2023-04-08T11:06:13;99096.13;;;6.26;100.00
68193;BME280;55012;47.562;18.414;2023-04-08T11:08:39;99093.56;;;6.46;100.00
68193;BME280;55012;47.562;18.414;2023-04-08T11:11:05;99099.72;;;6.56;100.00
68193;BME280;55012;47.562;18.414;2023-04-08T11:13:39;99102.88;;;6.49;100.00
68193;BME280;55012;47.562;18.414;2023-04-08T11:16:06;99119.38;;;6.30;100.00
68193;BME280;55012;47.562;18.414;2023-04-08T11:18:39;99117.31;;;6.18;100.00
68193;BME280;55012;47.562;18.414;2023-04-08T11:21:09;99120.81;;;6.10;100.00
68193;BME280;55012;47.562;18.414;2023-04-08T11:23:35;99122.88;;;6.13;100.00
68193;BME280;55012;47.562;18.414;2023-04-08T11:26:01;99119.53;;;6.25;100.00
68193;BME280;55012;47.562;18.414;2023-04-08T11:28:28;99116.50;;;6.35;100.00
68193;BME280;55012;47.562;18.414;2023-04-08T11:30:54;99120.16;;;6.39;100.00
68193;BME280;55012;47.562;18.414;2023-04-08T11:33:20;99116.03;;;6.42;100.00
68193;BME280;55012;47.562;18.414;2023-04-08T11:35:49;99112.81;;;6.57;100.00
68193;BME280;55012;47.562;18.414;2023-04-08T11:38:16;99108.81;;;6.72;100.00
68193;BME280;55012;47.562;18.414;2023-04-08T11:40:54;99111.97;;;6.74;100.00
68193;BME280;55012;47.562;18.414;2023-04-08T11:43:20;99121.44;;;6.80;100.00
68193;BME280;55012;47.562;18.414;2023-04-08T11:45:46;99131.53;;;6.83;100.00
68193;BME280;55012;47.562;18.414;2023-04-08T11:48:13;99134.28;;;6.74;100.00
68193;BME280;55012;47.562;18.414;2023-04-08T11:50:40;99138.22;;;6.68;100.00
68193;BME280;55012;47.562;18.414;2023-04-08T11:53:16;99136.97;;;6.66;100.00
68193;BME280;55012;47.562;18.414;2023-04-08T11:55:45;99140.03;;;6.56;100.00
68193;BME280;55012;47.562;18.414;2023-04-08T11:58:11;99135.91;;;6.50;100.00
68193;BME280;55012;47.562;18.414;2023-04-08T12:00:36;99140.81;;;6.56;100.00
68193;BME280;55012;47.562;18.414;2023-04-08T12:03:03;99129.56;;;6.63;100.00
68193;BME280;55012;47.562;18.414;2023-04-08T12:05:28;99133.84;;;6.64;100.00
68193;BME280;55012;47.562;18.414;2023-04-08T12:07:54;99135.75;;;6.63;100.00
68193;BME280;55012;47.562;18.414;2023-04-08T12:10:20;99133.22;;;6.50;100.00
68193;BME280;55012;47.562;18.414;2023-04-08T12:12:46;99138.00;;;6.35;100.00
68193;BME280;55012;47.562;18.414;2023-04-08T12:15:12;99144.16;;;6.27;100.00
68193;BME280;55012;47.562;18.414;2023-04-08T12:17:38;99151.13;;;6.19;100.00
68193;BME280;55012;47.562;18.414;2023-04-08T12:20:04;99152.41;;;6.13;100.00
68193;BME280;55012;47.562;18.414;2023-04-08T12:22:30;99149.41;;;6.15;100.00
68193;BME280;55012;47.562;18.414;2023-04-08T12:24:56;99144.50;;;6.17;100.00
68193;BME280;55012;47.562;18.414;2023-04-08T12:27:21;99150.84;;;6.12;100.00
68193;BME280;55012;47.562;18.414;2023-04-08T12:29:47;99142.63;;;6.09;100.00
68193;BME280;55012;47.562;18.414;2023-04-08T12:32:14;99145.47;;;6.12;100.00
68193;BME280;55012;47.562;18.414;2023-04-08T12:34:39;99137.56;;;6.16;100.00
68193;BME280;55012;47.562;18.414;2023-04-08T12:37:05;99134.72;;;6.30;100.00
68193;BME280;55012;47.562;18.414;2023-04-08T12:39:30;99132.78;;;6.39;100.00
68193;BME280;55012;47.562;18.414;2023-04-08T12:41:56;99141.44;;;6.53;100.00
68193;BME280;55012;47.562;18.414;2023-04-08T12:44:21;99139.22;;;6.64;100.00
68193;BME280;55012;47.562;18.414;2023-04-08T12:46:47;99133.06;;;6.63;100.00
68193;BME280;55012;47.562;18.414;2023-04-08T12:49:12;99141.09;;;6.72;100.00
68193;BME280;55012;47.562;18.414;2023-04-08T12:51:38;99133.91;;;6.85;100.00
68193;BME280;55012;47.562;18.414;2023-04-08T12:54:04;99134.94;;;7.01;100.00
68193;BME280;55012;47.562;18.414;2023-04-08T12:56:30;99133.28;;;7.17;100.00
68193;BME280;55012;47.562;18.414;2023-04-08T12:58:57;99126.75;;;7.27;100.00
68193;BME280;55012;47.562;18.414;2023-04-08T13:01:23;99116.59;;;7.32;100.00
68193;BME280;55012;47.562;18.414;2023-04-08T13:03:49;99112.88;;;7.46;100.00
68193;BME280;55012;47.562;18.414;2023-04-08T13:06:14;99093.78;;;7.59;100.00
68193;BME280;55012;47.562;18.414;2023-04-08T13:08:40;99083.47;;;7.82;100.00
68193;BME280;55012;47.562;18.414;2023-04-08T13:11:06;99080.88;;;8.07;100.00